Time;durP1;ratioP1;P1;durP2;ratioP2;P2;SDS_P1;SDS_P2;PMS_P1;PMS_P2;Temp;Humidity;BMP_temperature;BMP_pressure;BME280_temperature;BME280_humidity;BME280_pressure;Samples;Min_cycle;Max_cycle;Signal;HPM_P1;HPM_P2
2022/09/01 00:01:55;;;;;;;2.35;1.00;;;;;;;23.48;38.66;101990.69;4980446;28;20041;-65
2022/09/01 00:04:25;;;;;;;5.03;1.13;;;;;;;23.47;38.63;101981.00;4978054;28;20030;-64
2022/09/01 00:06:53;;;;;;;2.97;1.10;;;;;;;23.48;38.70;101985.38;4984043;28;20056;-64
2022/09/01 00:09:20;;;;;;;5.45;1.20;;;;;;;23.48;38.12;101981.84;4984404;28;20034;-64
2022/09/01 00:11:49;;;;;;;2.38;1.00;;;;;;;23.45;38.66;101977.66;4984482;28;20450;-65
2022/09/01 00:14:15;;;;;;;2.95;0.90;;;;;;;23.43;38.59;101973.44;4984359;28;20061;-65
2022/09/01 00:16:40;;;;;;;2.78;1.00;;;;;;;23.43;38.30;101974.28;4983703;28;20498;-64
2022/09/01 00:19:06;;;;;;;3.03;1.00;;;;;;;23.43;38.64;101976.09;4982651;28;20026;-65
2022/09/01 00:21:43;;;;;;;2.50;1.15;;;;;;;23.44;38.16;101975.97;4968244;28;20026;-65
2022/09/01 00:24:11;;;;;;;2.38;0.88;;;;;;;23.44;38.05;101972.47;4965037;28;20038;-65
2022/09/01 00:26:37;;;;;;;2.83;1.10;;;;;;;23.42;38.47;101975.25;4965214;28;20019;-64
2022/09/01 00:29:04;;;;;;;2.40;1.02;;;;;;;23.45;38.55;101976.78;4982646;28;20078;-66
2022/09/01 00:31:30;;;;;;;3.28;1.20;;;;;;;23.41;38.35;101976.22;4983722;28;20042;-66
2022/09/01 00:33:55;;;;;;;2.45;1.17;;;;;;;23.43;38.55;101986.72;4978013;28;20075;-67
2022/09/01 00:36:21;;;;;;;3.88;1.20;;;;;;;23.39;38.16;101978.19;4971571;28;20636;-64
2022/09/01 00:38:48;;;;;;;2.72;1.10;;;;;;;23.39;38.06;101982.66;4964865;28;20518;-64
2022/09/01 00:41:15;;;;;;;2.78;1.10;;;;;;;23.39;38.35;101980.84;4964506;28;20019;-67
2022/09/01 00:43:45;;;;;;;2.22;0.93;;;;;;;23.39;38.51;101982.66;4964151;28;20482;-64
2022/09/01 00:46:17;;;;;;;3.70;1.13;;;;;;;23.39;38.57;101990.66;4982054;28;20046;-66
2022/09/01 00:48:42;;;;;;;1.75;0.80;;;;;;;23.35;38.83;101971.44;4966123;28;20050;-65
2022/09/01 00:51:11;;;;;;;3.47;1.10;;;;;;;23.36;38.62;101981.94;4964528;28;20030;-65
2022/09/01 00:53:40;;;;;;;2.53;1.00;;;;;;;23.36;38.43;101978.44;4964601;28;20035;-65
2022/09/01 00:56:06;;;;;;;2.20;1.05;;;;;;;23.32;38.52;101977.88;4964536;28;20058;-65
2022/09/01 00:58:33;;;;;;;2.70;1.20;;;;;;;23.34;38.65;101977.75;4976108;28;20472;-65
2022/09/01 01:00:59;;;;;;;4.43;1.05;;;;;;;23.34;38.78;101985.72;4964094;28;20345;-66
2022/09/01 01:03:24;;;;;;;2.30;1.10;;;;;;;23.28;38.84;101972.94;4963766;28;20482;-65
2022/09/01 01:05:53;;;;;;;2.30;0.97;;;;;;;23.29;38.85;101971.94;4964079;28;20039;-67
2022/09/01 01:08:33;;;;;;;2.35;0.90;;;;;;;23.29;38.96;101977.25;4982759;28;21484;-65
2022/09/01 01:11:03;;;;;;;3.22;1.20;;;;;;;23.29;38.68;101972.81;4969125;28;20081;-65
2022/09/01 01:13:31;;;;;;;3.10;1.15;;;;;;;23.26;39.06;101964.25;4963916;28;20046;-64
2022/09/01 01:15:58;;;;;;;3.00;1.27;;;;;;;23.27;38.79;101965.94;4963879;28;20035;-67
2022/09/01 01:18:23;;;;;;;3.47;1.00;;;;;;;23.24;39.09;101963.53;4963821;28;20023;-64
2022/09/01 01:24:18;;;;;;;1.88;1.00;;;;;;;23.25;39.16;101970.53;4963739;28;20028;-66
2022/09/01 01:26:44;;;;;;;3.15;1.02;;;;;;;23.20;38.84;101959.47;4977691;28;20042;-64
2022/09/01 01:29:10;;;;;;;2.15;1.05;;;;;;;23.21;39.12;101963.78;4982883;28;20387;-65
2022/09/01 01:31:36;;;;;;;1.55;0.90;;;;;;;23.17;39.40;101961.38;4983132;28;20356;-65
2022/09/01 01:34:06;;;;;;;2.40;1.05;;;;;;;23.19;39.07;101958.59;4982569;28;20459;-66
2022/09/01 01:36:35;;;;;;;2.20;0.93;;;;;;;23.19;39.10;101963.91;4982737;28;20090;-65
2022/09/01 01:39:16;;;;;;;3.42;1.00;;;;;;;23.20;39.16;101954.97;4982407;28;20030;-64
2022/09/01 01:41:44;;;;;;;3.03;1.20;;;;;;;23.17;38.97;101971.19;4969242;28;20141;-64
2022/09/01 01:44:12;;;;;;;1.98;0.93;;;;;;;23.17;38.78;101966.72;4965163;28;20030;-64
2022/09/01 01:46:42;;;;;;;2.47;1.08;;;;;;;23.17;39.00;101974.69;4978884;28;20750;-65
2022/09/01 01:49:12;;;;;;;2.95;1.25;;;;;;;23.15;38.76;101971.31;4982204;28;20026;-65
2022/09/01 01:51:38;;;;;;;2.58;1.00;;;;;;;23.16;39.02;101978.34;4981995;28;20095;-65
2022/09/01 01:54:06;;;;;;;3.50;1.17;;;;;;;23.09;39.07;101961.22;4982520;28;20093;-66
2022/09/01 01:56:38;;;;;;;2.63;0.90;;;;;;;23.14;39.12;101974.94;4979581;28;20042;-65
2022/09/01 01:59:04;;;;;;;2.53;0.98;;;;;;;23.14;39.13;101980.25;4972329;28;20038;-64
2022/09/01 02:01:30;;;;;;;1.83;1.00;;;;;;;23.13;39.25;101977.72;4982165;28;20031;-66
2022/09/01 02:03:57;;;;;;;2.65;0.90;;;;;;;23.13;38.86;101978.59;4982204;28;20087;-63
2022/09/01 02:06:24;;;;;;;3.58;1.33;;;;;;;23.13;39.14;101972.41;4982466;28;20356;-65
2022/09/01 02:08:55;;;;;;;2.53;1.00;;;;;;;23.12;39.17;101973.41;4982364;28;20467;-64
2022/09/01 02:11:21;;;;;;;3.08;1.05;;;;;;;23.11;38.92;101974.38;4982131;28;20053;-65
2022/09/01 02:13:48;;;;;;;2.38;1.10;;;;;;;23.10;39.39;101973.53;4982584;28;20481;-65
2022/09/01 02:16:13;;;;;;;3.33;1.08;;;;;;;23.08;39.15;101966.66;4982226;28;20065;-65
2022/09/01 02:18:46;;;;;;;2.25;1.00;;;;;;;23.09;39.21;101974.50;4976906;28;21011;-66
2022/09/01 02:21:14;;;;;;;2.75;1.00;;;;;;;23.08;39.17;101974.63;4963490;28;20357;-67
2022/09/01 02:23:40;;;;;;;5.43;1.63;;;;;;;23.07;39.21;101972.94;4976266;28;20234;-65
2022/09/01 02:26:07;;;;;;;3.05;0.90;;;;;;;23.04;39.32;101979.34;4962372;28;20022;-65
2022/09/01 02:28:38;;;;;;;3.03;0.93;;;;;;;23.06;39.09;101981.88;4975425;28;20090;-64
2022/09/01 02:31:07;;;;;;;2.65;1.10;;;;;;;23.05;39.16;101969.53;4981953;28;20034;-64
2022/09/01 02:33:33;;;;;;;2.75;1.05;;;;;;;23.03;39.23;101971.50;4981967;28;20124;-63
2022/09/01 02:36:01;;;;;;;3.03;1.00;;;;;;;23.01;39.32;101974.28;4981680;28;20364;-65
2022/09/01 02:38:28;;;;;;;2.10;0.90;;;;;;;23.01;39.19;101972.47;4971977;28;20457;-65
2022/09/01 02:40:57;;;;;;;3.10;1.10;;;;;;;23.04;39.18;101973.19;4962693;28;20121;-65
2022/09/01 02:43:27;;;;;;;2.08;0.90;;;;;;;22.99;39.44;101960.28;4971896;28;20117;-64
2022/09/01 02:45:56;;;;;;;2.67;0.90;;;;;;;23.03;39.54;101974.16;4972128;28;20369;-66
2022/09/01 02:48:25;;;;;;;2.50;1.02;;;;;;;22.99;39.18;101969.09;4970970;28;20379;-65
2022/09/01 02:50:51;;;;;;;2.72;1.00;;;;;;;23.01;39.47;101963.66;4969452;28;20694;-66
2022/09/01 02:53:16;;;;;;;2.50;0.93;;;;;;;23.00;39.50;101967.28;4975430;28;20070;-64
2022/09/01 02:55:42;;;;;;;1.65;0.80;;;;;;;23.00;39.33;101964.63;4967811;28;20023;-66
2022/09/01 02:58:15;;;;;;;2.65;1.20;;;;;;;22.98;39.65;101963.91;4975559;28;20049;-64
2022/09/01 03:00:41;;;;;;;1.88;0.93;;;;;;;22.97;39.09;101965.72;4974822;28;20027;-65
2022/09/01 03:03:06;;;;;;;2.55;1.17;;;;;;;22.94;39.38;101960.69;4981876;28;20022;-65
2022/09/01 03:05:33;;;;;;;2.60;1.00;;;;;;;22.95;39.54;101961.50;4981168;28;20029;-66
2022/09/01 03:08:06;;;;;;;2.95;1.00;;;;;;;22.95;39.73;101948.22;4975582;28;20445;-67
2022/09/01 03:10:35;;;;;;;2.42;1.10;;;;;;;22.91;39.76;101944.16;4980846;28;20062;-64
2022/09/01 03:13:07;;;;;;;2.70;1.00;;;;;;;22.94;39.63;101959.81;4975859;28;20069;-65
2022/09/01 03:15:35;;;;;;;2.70;1.20;;;;;;;22.90;39.38;101948.59;4971419;28;20027;-65
2022/09/01 03:18:01;;;;;;;2.28;1.02;;;;;;;22.89;39.38;101954.91;4962157;28;20607;-63
2022/09/01 03:20:29;;;;;;;1.67;0.90;;;;;;;22.92;39.43;101957.31;4962558;28;20037;-66
2022/09/01 03:22:56;;;;;;;3.60;1.30;;;;;;;22.89;39.63;101954.06;4962350;28;20034;-63
2022/09/01 03:25:23;;;;;;;1.90;1.00;;;;;;;22.90;39.32;101961.06;4962057;28;20034;-67
2022/09/01 03:27:50;;;;;;;2.50;1.10;;;;;;;22.89;39.56;101956.72;4980831;28;20109;-65
2022/09/01 03:30:16;;;;;;;1.75;0.90;;;;;;;22.91;39.23;101962.75;4981564;28;20034;-64
2022/09/01 03:32:41;;;;;;;2.67;1.00;;;;;;;22.90;39.45;101955.75;4977781;28;20050;-67
2022/09/01 03:35:08;;;;;;;1.60;0.80;;;;;;;22.88;39.83;101955.88;4971841;28;20030;-65
2022/09/01 03:37:35;;;;;;;2.22;0.90;;;;;;;22.88;39.33;101953.22;4961911;28;20042;-66
2022/09/01 03:40:03;;;;;;;2.22;1.05;;;;;;;22.86;39.23;101951.66;4971004;28;20504;-65
2022/09/01 03:42:30;;;;;;;2.17;0.85;;;;;;;22.85;39.51;101956.13;4971631;28;20030;-65
2022/09/01 03:44:56;;;;;;;2.92;1.10;;;;;;;22.86;39.35;101951.66;4968644;28;20030;-67
2022/09/01 03:47:21;;;;;;;3.38;1.10;;;;;;;22.84;39.38;101951.78;4972685;28;20081;-64
2022/09/01 03:49:48;;;;;;;2.72;1.05;;;;;;;22.83;39.48;101958.91;4966161;28;20034;-64
2022/09/01 03:52:14;;;;;;;3.08;1.20;;;;;;;22.81;39.33;101950.25;4980891;28;20084;-65
2022/09/01 03:54:40;;;;;;;2.60;1.08;;;;;;;22.81;39.61;101952.03;4981605;28;20117;-63
2022/09/01 03:57:08;;;;;;;4.38;1.20;;;;;;;22.78;39.15;101947.84;4969573;28;20547;-65
2022/09/01 03:59:34;;;;;;;2.95;1.48;;;;;;;22.78;39.64;101953.16;4967752;28;20106;-64
2022/09/01 04:01:59;;;;;;;2.83;1.17;;;;;;;22.76;39.82;101946.28;4977122;28;20144;-66
2022/09/01 04:04:25;;;;;;;2.05;0.90;;;;;;;22.78;39.24;101946.97;4976313;28;20018;-65
2022/09/01 04:06:50;;;;;;;2.83;1.00;;;;;;;22.79;39.48;101951.31;4965434;28;20043;-64
2022/09/01 04:09:16;;;;;;;2.08;1.00;;;;;;;22.79;39.71;101941.53;4976558;28;20034;-65
2022/09/01 04:11:44;;;;;;;4.03;0.98;;;;;;;22.75;39.50;101944.59;4966157;28;20035;-63
2022/09/01 04:14:10;;;;;;;2.70;1.10;;;;;;;22.77;39.64;101948.78;4976996;28;20153;-66
2022/09/01 04:19:26;;;;;;;2.58;1.25;;;;;;;22.71;39.68;101937.84;4973941;28;20554;-65
2022/09/01 04:21:58;;;;;;;3.10;1.55;;;;;;;22.76;39.79;101951.59;4967454;28;20070;-66
2022/09/01 04:24:27;;;;;;;2.50;1.13;;;;;;;22.75;39.73;101953.41;4970238;28;20134;-66
2022/09/01 04:26:55;;;;;;;3.38;1.15;;;;;;;22.73;39.58;101943.88;4973207;28;20068;-65
2022/09/01 04:29:27;;;;;;;2.58;1.10;;;;;;;22.75;39.80;101949.91;4973037;28;20108;-66
2022/09/01 04:31:54;;;;;;;1.83;1.00;;;;;;;22.71;39.61;101953.78;4981631;28;20141;-65
2022/09/01 04:34:21;;;;;;;2.63;1.13;;;;;;;22.74;39.33;101953.53;4969121;28;20038;-66
2022/09/01 04:36:47;;;;;;;3.15;1.10;;;;;;;22.71;39.47;101953.78;4964614;28;20037;-64
2022/09/01 04:39:12;;;;;;;2.85;1.10;;;;;;;22.70;39.42;101955.63;4964571;28;20030;-64
2022/09/01 04:41:44;;;;;;;4.13;1.08;;;;;;;22.69;39.53;101950.44;4964834;28;20133;-62
2022/09/01 04:44:10;;;;;;;4.32;1.20;;;;;;;22.61;39.52;101943.09;4965171;28;20085;-63
2022/09/01 04:46:41;;;;;;;2.73;1.10;;;;;;;22.70;39.58;101958.28;4983642;28;20427;-65
2022/09/01 04:49:09;;;;;;;2.25;1.10;;;;;;;22.67;39.49;101949.69;4971748;28;20257;-64
2022/09/01 04:51:43;;;;;;;1.98;1.00;;;;;;;22.70;39.46;101952.97;4964147;28;20448;-63
2022/09/01 04:54:13;;;;;;;2.78;1.05;;;;;;;22.68;39.49;101954.88;4965816;28;20093;-65
2022/09/01 04:56:40;;;;;;;2.03;1.00;;;;;;;22.68;39.20;101954.88;4983621;28;20034;-65
2022/09/01 04:59:07;;;;;;;2.35;0.90;;;;;;;22.69;39.22;101953.91;4983563;28;20486;-64
2022/09/01 05:01:42;;;;;;;3.50;1.20;;;;;;;22.68;39.48;101957.53;4983217;28;20031;-66
2022/09/01 05:04:13;;;;;;;3.58;1.05;;;;;;;22.69;39.12;101958.41;4968123;28;20031;-65
2022/09/01 05:06:43;;;;;;;2.42;1.00;;;;;;;22.67;39.68;101955.00;4972276;28;20025;-64
2022/09/01 05:09:12;;;;;;;3.38;1.00;;;;;;;22.67;39.30;101962.97;4983650;28;20022;-64
2022/09/01 05:11:40;;;;;;;2.40;1.10;;;;;;;22.66;39.36;101956.81;4969785;28;20037;-65
2022/09/01 05:14:05;;;;;;;2.22;0.95;;;;;;;22.66;39.32;101956.00;4972985;28;20038;-67
2022/09/01 05:16:32;;;;;;;6.18;1.40;;;;;;;22.59;37.77;101955.66;4973625;28;20093;-66
2022/09/01 05:19:00;;;;;;;3.47;1.10;;;;;;;22.52;39.44;101959.78;4982456;28;20513;-64
2022/09/01 05:21:27;;;;;;;2.35;0.90;;;;;;;22.43;40.13;101954.28;4982874;28;20351;-67
2022/09/01 05:23:53;;;;;;;2.63;1.20;;;;;;;22.47;40.76;101952.19;4968134;28;20068;-64
2022/09/01 05:26:22;;;;;;;2.42;1.00;;;;;;;22.51;40.69;101961.63;4982783;28;20038;-64
2022/09/01 05:28:53;;;;;;;2.15;1.02;;;;;;;22.52;40.69;101957.97;4974027;28;20049;-65
2022/09/01 05:31:19;;;;;;;3.05;1.20;;;;;;;22.55;40.40;101965.69;4964055;28;20421;-64
2022/09/01 05:33:47;;;;;;;3.30;1.23;;;;;;;22.56;40.84;101959.41;4963483;28;20577;-64
2022/09/01 05:36:18;;;;;;;4.32;1.10;;;;;;;22.55;40.42;101952.41;4963549;28;20034;-64
2022/09/01 05:38:43;;;;;;;1.98;0.90;;;;;;;22.59;40.63;101964.47;4963205;28;20043;-65
2022/09/01 05:41:13;;;;;;;2.55;1.02;;;;;;;22.60;40.48;101967.97;4970869;28;20031;-62
2022/09/01 05:43:45;;;;;;;4.80;1.00;;;;;;;22.59;40.51;101963.63;4975419;28;20197;-63
2022/09/01 05:46:15;;;;;;;3.05;0.90;;;;;;;22.59;40.37;101967.13;4982734;28;20109;-64
2022/09/01 05:48:42;;;;;;;2.70;1.10;;;;;;;22.62;40.74;101966.00;4982378;28;20045;-63
2022/09/01 05:51:09;;;;;;;3.80;1.10;;;;;;;22.60;40.74;101954.69;4982376;28;20069;-64
2022/09/01 05:53:34;;;;;;;2.15;0.90;;;;;;;22.60;40.31;101963.47;4982411;28;20038;-67
2022/09/01 05:56:06;;;;;;;3.78;1.30;;;;;;;22.62;40.70;101961.56;4980440;28;20041;-63
2022/09/01 05:58:33;;;;;;;4.28;1.00;;;;;;;22.63;40.76;101965.88;4982688;28;20037;-64
2022/09/01 06:01:00;;;;;;;3.35;1.20;;;;;;;22.63;40.37;101957.91;4969174;28;20031;-64
2022/09/01 06:03:26;;;;;;;2.33;1.00;;;;;;;22.67;40.72;101969.16;4968737;28;20230;-64
2022/09/01 06:05:54;;;;;;;3.97;1.50;;;;;;;22.66;40.86;101967.44;4971553;28;20494;-66
2022/09/01 06:08:22;;;;;;;2.13;1.00;;;;;;;22.68;40.51;101967.31;4964693;28;20058;-65
2022/09/01 06:10:49;;;;;;;2.63;1.00;;;;;;;22.71;40.42;101973.22;4977799;28;20643;-65
2022/09/01 06:13:16;;;;;;;2.95;1.08;;;;;;;22.70;40.88;101970.69;4971307;28;20034;-63
2022/09/01 06:15:43;;;;;;;3.92;1.13;;;;;;;22.74;41.14;101978.28;4967104;28;20034;-63
2022/09/01 06:18:10;;;;;;;2.10;1.00;;;;;;;22.72;41.13;101966.94;4969521;28;20459;-75
2022/09/01 06:20:41;;;;;;;4.00;1.13;;;;;;;22.79;40.92;101973.41;4978012;28;20921;-76
2022/09/01 06:23:06;;;;;;;3.17;1.10;;;;;;;22.88;40.84;101978.97;4970444;28;20419;-77
2022/09/01 06:25:36;;;;;;;2.58;1.08;;;;;;;22.94;40.53;101976.63;4969504;28;20031;-67
2022/09/01 06:28:03;;;;;;;4.28;1.45;;;;;;;22.96;40.60;101973.84;4974543;28;20046;-68
2022/09/01 06:30:29;;;;;;;3.47;1.17;;;;;;;23.00;40.44;101973.44;4974244;28;20092;-65
2022/09/01 06:32:55;;;;;;;3.67;1.15;;;;;;;23.02;40.66;101973.31;4969996;28;20045;-66
2022/09/01 06:35:28;;;;;;;4.57;1.83;;;;;;;23.01;40.81;101979.59;4962040;28;21007;-68
2022/09/01 06:37:55;;;;;;;3.90;1.30;;;;;;;23.05;40.50;101974.84;4975259;28;20030;-69
2022/09/01 06:40:24;;;;;;;5.30;1.10;;;;;;;23.04;40.47;101981.16;4978657;28;20125;-69
2022/09/01 06:42:51;;;;;;;4.93;1.30;;;;;;;22.97;40.29;101970.19;4969971;28;20602;-65
2022/09/01 06:45:19;;;;;;;3.20;1.02;;;;;;;23.06;40.84;101973.91;4979182;28;20030;-64
2022/09/01 06:47:46;;;;;;;3.78;1.30;;;;;;;23.06;40.69;101979.22;4971701;28;20088;-66
2022/09/01 06:50:14;;;;;;;4.18;1.40;;;;;;;23.07;40.72;101987.06;4962259;28;20062;-64
2022/09/01 06:52:42;;;;;;;2.95;1.33;;;;;;;23.11;41.08;101980.53;4962389;28;20041;-66
2022/09/01 06:55:13;;;;;;;3.75;1.20;;;;;;;23.12;40.77;101976.06;4971980;28;20489;-64
2022/09/01 06:57:39;;;;;;;2.92;1.10;;;;;;;23.14;40.68;101982.09;4981971;28;20027;-66
2022/09/01 07:00:13;;;;;;;4.45;1.30;;;;;;;23.17;40.81;101987.16;4971173;28;20106;-66
2022/09/01 07:02:40;;;;;;;6.72;1.30;;;;;;;23.18;40.67;101987.03;4981758;28;20352;-65
2022/09/01 07:05:06;;;;;;;3.10;1.00;;;;;;;23.18;41.11;101987.03;4971108;28;20041;-65
2022/09/01 07:07:33;;;;;;;3.78;1.20;;;;;;;23.20;41.03;101986.88;4963682;28;20479;-67
2022/09/01 07:10:00;;;;;;;3.17;1.20;;;;;;;23.22;41.18;101990.25;4962785;28;20081;-67
2022/09/01 07:12:25;;;;;;;4.82;1.30;;;;;;;23.26;41.13;101991.69;4973147;28;20058;-68
2022/09/01 07:14:54;;;;;;;6.00;1.38;;;;;;;23.25;41.43;101990.00;4970484;28;20510;-64
2022/09/01 07:17:20;;;;;;;8.57;1.40;;;;;;;23.28;41.39;101995.06;4965948;28;20526;-66
2022/09/01 07:19:46;;;;;;;3.92;1.30;;;;;;;23.31;41.32;101993.97;4979015;28;20080;-67
2022/09/01 07:22:12;;;;;;;3.13;1.23;;;;;;;23.36;41.38;102007.69;4985288;28;20490;-67
2022/09/01 07:24:38;;;;;;;3.33;1.27;;;;;;;23.39;41.67;102003.94;4974217;28;20038;-69
2022/09/01 07:27:04;;;;;;;4.25;1.23;;;;;;;23.37;41.43;101996.09;4985000;28;20042;-66
2022/09/01 07:29:29;;;;;;;3.05;1.08;;;;;;;23.41;41.74;102002.00;4985108;28;20380;-66
2022/09/01 07:31:55;;;;;;;3.40;1.35;;;;;;;23.41;41.47;102002.81;4984987;28;20969;-66
2022/09/01 07:34:21;;;;;;;4.30;1.20;;;;;;;23.40;41.46;101995.84;4984946;28;20475;-66
2022/09/01 07:36:46;;;;;;;3.33;1.20;;;;;;;23.43;41.56;101992.91;4978386;28;20034;-64
2022/09/01 07:39:12;;;;;;;2.83;1.10;;;;;;;23.44;41.76;101999.91;4976143;28;20126;-65
2022/09/01 07:41:40;;;;;;;7.82;1.23;;;;;;;23.48;41.74;101998.69;4978536;28;20039;-65
2022/09/01 07:44:09;;;;;;;3.08;1.20;;;;;;;23.51;41.64;101995.75;4982250;28;20030;-68
2022/09/01 07:46:35;;;;;;;4.20;1.10;;;;;;;23.54;41.82;101998.16;4965356;28;20460;-66
2022/09/01 07:49:01;;;;;;;3.15;1.23;;;;;;;23.57;41.89;101996.19;4981507;28;20030;-67
2022/09/01 07:51:28;;;;;;;3.97;1.15;;;;;;;23.55;41.88;102001.63;4984905;28;20036;-65
2022/09/01 07:53:54;;;;;;;3.95;1.10;;;;;;;23.57;41.51;102002.34;4970676;28;20034;-66
2022/09/01 07:56:22;;;;;;;3.90;1.20;;;;;;;23.58;41.56;101997.88;4977709;28;20037;-66
2022/09/01 07:58:49;;;;;;;6.20;1.30;;;;;;;23.61;42.18;102008.25;4984559;28;20497;-64
2022/09/01 08:01:18;;;;;;;3.40;1.20;;;;;;;23.60;42.02;101998.59;4984732;28;20041;-63
2022/09/01 08:03:50;;;;;;;6.80;1.63;;;;;;;23.53;41.67;101982.31;4966432;28;20035;-64
2022/09/01 08:06:18;;;;;;;4.25;1.20;;;;;;;23.55;41.89;101997.16;4963929;28;20089;-64
2022/09/01 08:08:44;;;;;;;3.70;1.50;;;;;;;23.60;42.14;101998.59;4973743;28;20360;-67
2022/09/01 08:11:16;;;;;;;4.88;1.27;;;;;;;23.61;41.93;101994.97;4975625;28;20034;-66
2022/09/01 08:13:41;;;;;;;3.50;1.25;;;;;;;23.61;42.19;102005.59;4978385;28;20042;-64
2022/09/01 08:16:08;;;;;;;4.07;1.33;;;;;;;23.60;42.44;102002.06;4972060;28;20517;-71
2022/09/01 08:18:34;;;;;;;4.28;1.20;;;;;;;23.59;42.52;102007.53;4969062;28;20303;-65
2022/09/01 08:21:05;;;;;;;3.65;1.17;;;;;;;23.61;42.38;102001.09;4965309;28;20030;-68
2022/09/01 08:23:30;;;;;;;2.95;1.10;;;;;;;23.63;42.76;102006.31;4964472;28;20483;-62
2022/09/01 08:25:56;;;;;;;4.23;1.20;;;;;;;23.65;42.44;101999.00;4964389;28;20043;-65
2022/09/01 08:28:21;;;;;;;3.93;1.10;;;;;;;23.67;42.78;101999.72;4968468;28;20281;-65
2022/09/01 08:30:49;;;;;;;4.50;1.37;;;;;;;23.66;42.46;102001.53;4970386;28;20275;-67
2022/09/01 08:33:14;;;;;;;3.53;1.17;;;;;;;23.69;42.80;101993.28;4968176;28;20599;-65
2022/09/01 08:35:41;;;;;;;3.65;1.25;;;;;;;23.70;42.61;101994.13;4967474;28;20062;-72
2022/09/01 08:38:09;;;;;;;6.60;1.27;;;;;;;23.72;42.52;101993.03;4969941;28;20039;-74
2022/09/01 08:40:35;;;;;;;5.35;1.25;;;;;;;23.75;42.32;101997.25;4969324;28;20052;-77
2022/09/01 08:43:18;;;;;;;3.13;1.08;;;;;;;23.82;42.72;102006.38;4982238;28;20037;-72
2022/09/01 08:45:53;;;;;;;3.00;1.02;;;;;;;23.86;42.47;102001.66;4979629;28;20108;-71
2022/09/01 08:48:30;;;;;;;2.58;1.10;;;;;;;23.91;42.64;101999.44;4975346;28;20037;-71
2022/09/01 08:51:08;;;;;;;3.38;1.48;;;;;;;23.96;42.20;102007.84;4981069;28;20061;-71
2022/09/01 08:53:41;;;;;;;3.22;1.20;;;;;;;24.01;42.03;102004.78;4968538;28;20456;-67
2022/09/01 08:56:08;;;;;;;3.75;1.20;;;;;;;24.01;42.54;101992.31;4982529;28;21296;-63
2022/09/01 08:58:34;;;;;;;3.97;1.20;;;;;;;23.99;42.19;101996.94;4981120;28;20027;-65
2022/09/01 09:01:06;;;;;;;8.15;1.27;;;;;;;23.99;42.52;101996.94;4983725;28;20030;-66
2022/09/01 09:03:49;;;;;;;7.20;1.67;;;;;;;23.99;42.05;101996.94;4981607;28;20077;-67
2022/09/01 09:06:23;;;;;;;3.90;1.38;;;;;;;24.00;42.39;101995.09;4976029;28;20034;-67
2022/09/01 09:09:02;;;;;;;5.18;1.20;;;;;;;23.99;42.29;101991.63;4964049;28;20114;-66
2022/09/01 09:11:50;;;;;;;4.65;1.15;;;;;;;23.97;42.22;101990.88;4977089;28;20032;-68
2022/09/01 09:14:18;;;;;;;3.38;1.27;;;;;;;23.98;42.09;101989.09;4983127;28;20030;-66
2022/09/01 09:16:47;;;;;;;3.90;1.30;;;;;;;23.96;42.10;101986.56;4970157;28;21239;-65
2022/09/01 09:19:19;;;;;;;3.28;1.10;;;;;;;23.92;42.35;101979.81;4963774;28;20042;-66
2022/09/01 09:21:47;;;;;;;5.30;1.30;;;;;;;23.96;42.40;101980.38;4978397;28;20479;-64
2022/09/01 09:24:27;;;;;;;3.92;1.10;;;;;;;23.93;42.29;101984.16;4963660;28;20030;-63
2022/09/01 09:26:55;;;;;;;4.95;1.10;;;;;;;23.90;42.04;101979.94;4963661;28;20043;-66
2022/09/01 09:29:21;;;;;;;4.68;1.60;;;;;;;23.89;42.04;101975.63;4979035;28;20054;-65
2022/09/01 09:31:47;;;;;;;4.63;1.38;;;;;;;23.89;42.37;101983.59;4977940;28;20126;-66
2022/09/01 09:34:28;;;;;;;2.78;1.00;;;;;;;23.90;42.05;101977.28;4974981;28;20386;-65
2022/09/01 09:36:54;;;;;;;3.17;1.20;;;;;;;23.91;42.21;101967.50;4971809;28;20479;-65
2022/09/01 09:39:19;;;;;;;3.53;1.15;;;;;;;23.87;42.14;101966.91;4971089;28;20046;-64
2022/09/01 09:42:06;;;;;;;3.17;1.20;;;;;;;23.88;41.98;101959.78;4963370;28;20022;-66
2022/09/01 09:44:31;;;;;;;2.42;0.90;;;;;;;23.87;42.26;101963.41;4966665;28;20280;-64
2022/09/01 09:46:57;;;;;;;4.20;1.08;;;;;;;23.85;41.70;101957.38;4982716;28;20030;-65
2022/09/01 09:49:24;;;;;;;3.88;1.20;;;;;;;23.89;41.98;101967.63;4970370;28;20455;-66
2022/09/01 09:51:54;;;;;;;4.28;1.38;;;;;;;23.87;42.40;101950.09;4968466;28;20034;-65
2022/09/01 09:54:31;;;;;;;3.28;1.10;;;;;;;23.87;42.10;101952.75;4963130;28;20085;-68
2022/09/01 09:57:16;;;;;;;3.15;1.10;;;;;;;23.87;42.13;101948.28;4978434;28;20034;-65
2022/09/01 09:59:46;;;;;;;3.15;1.08;;;;;;;23.88;42.27;101947.31;4964603;28;20049;-67
2022/09/01 10:02:30;;;;;;;3.70;1.48;;;;;;;23.87;41.75;101952.75;4962817;28;20065;-64
2022/09/01 10:04:56;;;;;;;2.67;1.08;;;;;;;23.84;41.81;101945.03;4978426;28;20105;-66
2022/09/01 10:07:35;;;;;;;2.47;1.10;;;;;;;23.87;41.99;101952.75;4963944;28;20031;-64
2022/09/01 10:10:05;;;;;;;3.22;1.10;;;;;;;23.85;42.01;101938.75;4963234;28;20129;-65
2022/09/01 10:12:32;;;;;;;5.43;1.38;;;;;;;23.85;42.35;101938.75;4976645;28;20034;-65
2022/09/01 10:15:01;;;;;;;2.80;1.00;;;;;;;23.87;41.94;101944.78;4965124;28;20090;-66
2022/09/01 10:17:37;;;;;;;4.75;1.10;;;;;;;23.85;41.96;101928.94;4962544;28;20035;-64
2022/09/01 10:20:11;;;;;;;2.70;0.90;;;;;;;23.85;42.13;101941.41;4967720;28;20038;-67
2022/09/01 10:22:38;;;;;;;3.50;1.27;;;;;;;23.85;42.00;101936.09;4961888;28;20360;-65
2022/09/01 10:25:06;;;;;;;1.98;0.90;;;;;;;23.86;41.68;101930.63;4962472;28;20034;-64
2022/09/01 10:27:35;;;;;;;2.90;1.30;;;;;;;23.86;42.14;101932.44;4976596;28;20721;-68
2022/09/01 10:30:08;;;;;;;3.05;1.45;;;;;;;23.86;41.64;101938.63;4964411;28;20821;-65
2022/09/01 10:32:42;;;;;;;4.07;1.10;;;;;;;23.86;42.08;101929.78;4982448;28;20998;-65
2022/09/01 10:35:13;;;;;;;3.50;0.90;;;;;;;23.87;41.97;101937.63;4977911;28;20398;-67
2022/09/01 10:37:40;;;;;;;3.22;1.33;;;;;;;23.86;41.49;101938.63;4975161;28;20185;-68
2022/09/01 10:40:15;;;;;;;3.80;1.20;;;;;;;23.83;41.28;101924.69;4974737;28;20149;-64
2022/09/01 10:42:42;;;;;;;3.47;1.23;;;;;;;23.85;41.05;101938.75;4962350;28;20026;-65
2022/09/01 10:45:32;;;;;;;2.92;1.00;;;;;;;23.87;41.21;101931.47;4968357;28;20030;-66
2022/09/01 10:48:20;;;;;;;6.43;1.25;;;;;;;23.86;41.31;101927.13;4966151;28;20034;-65
2022/09/01 10:50:51;;;;;;;8.90;3.95;;;;;;;23.86;41.37;101943.09;4968558;28;20042;-68
2022/09/01 10:53:31;;;;;;;12.82;9.38;;;;;;;23.88;41.53;101933.16;4978865;28;20490;-66
2022/09/01 10:56:15;;;;;;;17.75;15.85;;;;;;;23.88;41.30;101927.84;4969170;28;20030;-67
2022/09/01 10:59:05;;;;;;;20.43;18.33;;;;;;;23.90;41.23;101934.69;4968422;28;20820;-65
2022/09/01 11:01:39;;;;;;;22.88;20.67;;;;;;;23.88;41.75;101927.84;4968615;28;20026;-63
2022/09/01 11:04:06;;;;;;;30.35;24.95;;;;;;;23.88;41.67;101933.16;4968867;28;20411;-65
2022/09/01 11:06:43;;;;;;;30.35;27.55;;;;;;;23.89;42.03;101929.50;4969009;28;20093;-65
2022/09/01 11:09:39;;;;;;;31.40;28.52;;;;;;;23.90;42.15;101926.69;4968791;28;20042;-67
2022/09/01 11:12:26;;;;;;;32.85;29.80;;;;;;;23.94;42.52;101929.09;4932549;28;20091;-63
2022/09/01 11:15:00;;;;;;;32.85;29.75;;;;;;;23.92;42.56;101923.06;4974430;28;20455;-67
2022/09/01 11:17:30;;;;;;;32.85;29.67;;;;;;;23.90;42.53;101913.38;4981591;28;20026;-68
2022/09/01 11:20:21;;;;;;;31.17;28.17;;;;;;;23.93;42.43;101925.59;4987967;28;20038;-68
2022/09/01 11:22:56;;;;;;;29.17;26.38;;;;;;;23.94;42.71;101931.75;4986546;28;20470;-68
2022/09/01 11:25:38;;;;;;;30.48;27.33;;;;;;;23.94;42.91;101911.31;4973299;28;20031;-67
2022/09/01 11:28:33;;;;;;;29.70;26.80;;;;;;;23.98;43.12;101919.88;4978753;28;20046;-67
2022/09/01 11:31:13;;;;;;;26.83;24.23;;;;;;;23.97;42.95;101902.19;4968499;28;20475;-67
2022/09/01 11:33:49;;;;;;;27.10;24.40;;;;;;;24.01;42.71;101907.09;4986219;28;20038;-71
2022/09/01 11:36:30;;;;;;;25.95;23.35;;;;;;;24.03;42.62;101906.97;4986579;28;20328;-68
2022/09/01 11:39:15;;;;;;;25.10;22.70;;;;;;;23.97;42.80;101895.03;4971569;28;20034;-68
2022/09/01 11:41:49;;;;;;;25.13;22.65;;;;;;;23.99;42.68;101902.88;4988108;28;20103;-70